createdAt,value
2019-04-28T00:01:52.503Z,73.50
2019-04-28T00:04:21.505Z,73.30
2019-04-28T00:06:51.569Z,73.40
2019-04-28T00:09:23.113Z,73.00
2019-04-28T00:11:52.063Z,72.30
2019-04-28T00:14:21.874Z,73.00
2019-04-28T00:16:51.663Z,73.40
2019-04-28T00:19:22.055Z,73.80
2019-04-28T00:21:54.946Z,73.60
2019-04-28T00:24:25.355Z,73.60
2019-04-28T00:26:55.753Z,73.20
2019-04-28T00:29:37.240Z,73.00
2019-04-28T00:31:55.094Z,72.00
2019-04-28T00:34:23.953Z,71.90
2019-04-28T00:36:54.327Z,71.50
2019-04-28T00:39:23.186Z,71.50
2019-04-28T00:41:52.031Z,71.60
2019-04-28T00:44:22.215Z,71.70
2019-04-28T00:46:51.259Z,71.00
2019-04-28T00:49:23.234Z,71.40
2019-04-28T00:51:52.155Z,71.80
2019-04-28T00:54:21.861Z,73.80
2019-04-28T00:56:51.688Z,73.30
2019-04-28T00:59:21.713Z,73.80
2019-04-28T01:01:52.457Z,74.40
2019-04-28T01:04:21.935Z,74.30
2019-04-28T01:06:52.044Z,73.80
2019-04-28T01:09:21.755Z,73.50
2019-04-28T01:11:53.201Z,73.20
2019-04-28T01:14:21.578Z,72.50
2019-04-28T01:16:54.722Z,72.70
2019-04-28T01:19:37.177Z,73.00
2019-04-28T01:22:10.557Z,73.50
2019-04-28T01:24:40.897Z,74.50
2019-04-28T01:27:14.032Z,75.40
2019-04-28T01:29:42.850Z,76.30
2019-04-28T01:32:25.273Z,75.80
2019-04-28T01:34:53.227Z,76.50
2019-04-28T01:37:22.112Z,77.10
2019-04-28T01:39:50.906Z,78.00
2019-04-28T01:42:20.398Z,78.40
2019-04-28T01:44:49.568Z,79.10
2019-04-28T01:47:19.996Z,79.10
2019-04-28T01:49:50.144Z,78.90
2019-04-28T01:52:20.286Z,79.30
2019-04-28T01:54:50.170Z,79.50
2019-04-28T01:57:21.293Z,78.70
2019-04-28T01:59:50.024Z,78.20
2019-04-28T02:02:19.913Z,78.10
2019-04-28T02:04:49.919Z,78.90
2019-04-28T02:07:20.560Z,80.20
2019-04-28T02:09:49.559Z,80.70
2019-04-28T02:12:20.261Z,80.60
2019-04-28T02:14:50.007Z,81.20
2019-04-28T02:17:20.290Z,81.20
2019-04-28T02:19:49.194Z,81.70
2019-04-28T02:22:25.700Z,81.80
2019-04-28T02:24:54.513Z,81.80
2019-04-28T02:27:23.384Z,82.10
2019-04-28T02:29:52.209Z,81.80
2019-04-28T02:32:24.300Z,81.30
2019-04-28T02:34:51.565Z,82.00
2019-04-28T02:37:20.799Z,80.60
2019-04-28T02:39:50.558Z,81.10
2019-04-28T02:42:20.924Z,81.90
2019-04-28T02:44:50.554Z,81.90
2019-04-28T02:47:21.880Z,81.50
2019-04-28T02:49:54.325Z,81.00
2019-04-28T02:52:31.196Z,81.20
2019-04-28T02:55:03.255Z,81.70
2019-04-28T02:57:32.101Z,81.50
2019-04-28T03:00:00.910Z,80.60
2019-04-28T03:02:32.024Z,79.20
2019-04-28T03:05:00.492Z,76.40
2019-04-28T03:07:31.242Z,76.40
2019-04-28T03:10:03.162Z,77.10
2019-04-28T03:12:31.598Z,77.10
2019-04-28T03:15:00.952Z,77.50
2019-04-28T03:17:31.070Z,77.40
2019-04-28T03:20:01.250Z,78.10
2019-04-28T03:22:32.956Z,78.50
2019-04-28T03:25:02.667Z,78.60
2019-04-28T03:27:50.763Z,78.70
2019-04-28T03:30:43.473Z,79.00
2019-04-28T03:33:18.891Z,79.60
2019-04-28T03:35:47.001Z,80.30
2019-04-28T03:38:15.761Z,80.50
2019-04-28T03:40:44.638Z,80.20
2019-04-28T03:43:14.184Z,79.60
2019-04-28T03:45:57.259Z,79.60
2019-04-28T03:48:25.245Z,79.60
2019-04-28T03:50:54.097Z,79.80
2019-04-28T03:53:22.933Z,79.90
2019-04-28T03:55:51.801Z,80.30
2019-04-28T03:58:23.785Z,80.60
2019-04-28T04:00:51.022Z,80.40
2019-04-28T04:03:21.056Z,80.20
2019-04-28T04:05:51.049Z,80.30
2019-04-28T04:08:20.962Z,81.50
2019-04-28T04:10:51.846Z,82.10
2019-04-28T04:13:22.237Z,81.90
2019-04-28T04:16:10.255Z,81.60
2019-04-28T04:18:55.319Z,80.80
2019-04-28T04:21:24.180Z,81.30
2019-04-28T04:23:52.999Z,80.60
2019-04-28T04:26:21.841Z,79.50
2019-04-28T04:28:51.518Z,79.10
2019-04-28T04:31:20.932Z,78.80
2019-04-28T04:33:50.597Z,79.50
2019-04-28T04:36:21.186Z,79.40
2019-04-28T04:38:51.265Z,79.10
2019-04-28T04:41:21.068Z,79.20
2019-04-28T04:43:51.243Z,79.10
2019-04-28T04:46:22.669Z,79.10
2019-04-28T04:48:51.805Z,78.80
2019-04-28T04:51:21.491Z,78.40
2019-04-28T04:53:51.461Z,78.50
2019-04-28T04:56:21.226Z,78.70
2019-04-28T04:58:50.809Z,78.50
2019-04-28T05:01:27.648Z,78.60
2019-04-28T05:03:59.538Z,78.90
2019-04-28T05:06:35.537Z,79.60
2019-04-28T05:09:10.177Z,80.00
2019-04-28T05:11:40.011Z,78.70
2019-04-28T05:14:11.526Z,78.40
2019-04-28T05:16:40.126Z,77.80
2019-04-28T05:19:10.061Z,77.30
2019-04-28T05:21:40.186Z,77.30
2019-04-28T05:24:27.419Z,77.50
2019-04-28T05:26:56.230Z,78.10
2019-04-28T05:29:26.907Z,77.30
2019-04-28T05:31:59.703Z,77.10
2019-04-28T05:34:26.059Z,77.50
2019-04-28T05:36:54.857Z,77.80
2019-04-28T05:39:23.703Z,77.20
2019-04-28T05:41:52.545Z,77.40
2019-04-28T05:44:21.404Z,77.90
2019-04-28T05:46:50.734Z,77.30
2019-04-28T05:49:27.490Z,75.90
2019-04-28T05:52:00.831Z,74.70
2019-04-28T05:54:37.172Z,73.60
2019-04-28T05:57:10.778Z,72.80
2019-04-28T05:59:43.908Z,71.90
2019-04-28T06:02:14.291Z,70.60
2019-04-28T06:04:43.145Z,67.30
2019-04-28T06:07:13.542Z,64.40
2019-04-28T06:09:50.146Z,63.50
2019-04-28T06:12:20.143Z,62.30
2019-04-28T06:14:50.213Z,59.40
2019-04-28T06:17:20.652Z,57.90
2019-04-28T06:19:50.411Z,57.60
2019-04-28T06:22:19.453Z,57.20
2019-04-28T06:24:48.323Z,56.40
2019-04-28T06:27:17.119Z,55.70
2019-04-28T06:29:45.974Z,55.10
2019-04-28T06:32:14.839Z,53.90
2019-04-28T06:34:43.692Z,53.80
2019-04-28T06:37:12.534Z,54.90
2019-04-28T06:39:41.344Z,54.50
2019-04-28T06:42:10.192Z,55.20
2019-04-28T06:44:39.033Z,56.10
2019-04-28T06:47:07.863Z,56.40
2019-04-28T06:49:36.680Z,56.70
2019-04-28T06:52:05.533Z,54.40
2019-04-28T06:54:34.358Z,54.20
2019-04-28T06:57:03.154Z,53.70
2019-04-28T06:59:32.012Z,51.60
2019-04-28T07:02:00.851Z,51.90
2019-04-28T07:04:29.703Z,53.60
2019-04-28T07:06:58.502Z,56.90
2019-04-28T07:09:27.458Z,62.00
2019-04-28T07:11:56.329Z,62.60
2019-04-28T07:14:25.186Z,64.90
2019-04-28T07:16:54.005Z,66.40
2019-04-28T07:19:22.878Z,66.40
2019-04-28T07:21:53.279Z,68.40
2019-04-28T07:24:22.092Z,65.60
2019-04-28T07:26:50.882Z,66.00
2019-04-28T07:29:19.615Z,64.50
2019-04-28T07:31:48.474Z,64.90
2019-04-28T07:34:18.523Z,66.80
2019-04-28T07:36:47.387Z,65.50
2019-04-28T07:39:16.205Z,65.00
2019-04-28T07:41:45.061Z,62.40
2019-04-28T07:44:13.879Z,59.40
2019-04-28T07:46:42.730Z,59.20
2019-04-28T07:49:11.567Z,58.20
2019-04-28T07:51:41.996Z,58.30
2019-04-28T07:54:12.379Z,59.10
2019-04-28T07:56:41.201Z,59.20
2019-04-28T07:59:10.069Z,60.00
2019-04-28T08:01:38.871Z,57.50
2019-04-28T08:04:07.726Z,55.00
2019-04-28T08:06:36.553Z,53.60
2019-04-28T08:09:08.851Z,55.10
2019-04-28T08:11:38.087Z,55.50
2019-04-28T08:14:06.942Z,54.10
2019-04-28T08:16:35.776Z,56.50
2019-04-28T08:19:04.623Z,56.50
2019-04-28T08:21:33.451Z,54.40
2019-04-28T08:24:02.286Z,52.50
2019-04-28T08:26:31.133Z,52.60
2019-04-28T08:28:59.992Z,53.40
2019-04-28T08:31:33.140Z,53.60
2019-04-28T08:34:03.566Z,54.70
2019-04-28T08:36:32.389Z,53.90
2019-04-28T08:39:01.270Z,55.30
2019-04-28T08:41:30.104Z,55.90
2019-04-28T08:43:58.901Z,55.10
2019-04-28T08:46:27.724Z,54.80
2019-04-28T08:48:56.550Z,54.80
2019-04-28T08:51:25.409Z,55.40
2019-04-28T08:53:54.227Z,56.50
2019-04-28T08:56:23.063Z,58.10
2019-04-28T08:58:51.907Z,60.30
2019-04-28T09:01:20.748Z,60.50
2019-04-28T09:03:49.561Z,59.00
2019-04-28T09:06:18.430Z,56.70
2019-04-28T09:08:47.281Z,54.70
2019-04-28T09:11:16.110Z,54.70
2019-04-28T09:13:44.979Z,55.80
2019-04-28T09:16:13.780Z,56.70
2019-04-28T09:18:42.628Z,57.60
2019-04-28T09:21:11.450Z,56.90
2019-04-28T09:23:40.311Z,59.10
2019-04-28T09:26:09.123Z,61.60
2019-04-28T09:28:37.998Z,59.00
2019-04-28T09:31:06.794Z,59.40
2019-04-28T09:33:35.654Z,60.00
2019-04-28T09:36:04.469Z,58.90
2019-04-28T09:38:33.340Z,59.40
2019-04-28T09:41:02.150Z,56.20
2019-04-28T09:43:48.744Z,56.70
2019-04-28T09:46:18.778Z,60.10
2019-04-28T09:48:47.585Z,57.00
2019-04-28T09:51:16.469Z,58.10
2019-04-28T09:53:45.286Z,56.10
2019-04-28T09:56:14.151Z,55.40
2019-04-28T09:58:42.979Z,56.10
2019-04-28T10:01:11.874Z,56.70
2019-04-28T10:03:40.689Z,57.60
2019-04-28T10:06:09.545Z,58.50
2019-04-28T10:08:38.378Z,57.90
2019-04-28T10:11:07.248Z,58.00
2019-04-28T10:13:36.048Z,57.30
2019-04-28T10:16:04.930Z,55.50
2019-04-28T10:18:33.742Z,54.50
2019-04-28T10:21:02.609Z,51.60
2019-04-28T10:23:31.466Z,49.10
2019-04-28T10:26:00.293Z,48.00
2019-04-28T10:28:29.140Z,46.70
2019-04-28T10:30:57.965Z,45.60
2019-04-28T10:33:26.740Z,47.20
2019-04-28T10:35:55.566Z,48.30
2019-04-28T10:38:24.406Z,47.70
2019-04-28T10:41:03.754Z,47.30
2019-04-28T10:43:32.625Z,45.20
2019-04-28T10:46:01.419Z,46.80
2019-04-28T10:48:30.392Z,46.70
2019-04-28T10:51:01.225Z,46.40
2019-04-28T10:53:29.723Z,48.20
2019-04-28T10:55:58.564Z,44.60
2019-04-28T10:58:27.375Z,44.10
2019-04-28T11:00:56.243Z,46.70
2019-04-28T11:03:25.058Z,47.80
2019-04-28T11:05:53.937Z,48.40
2019-04-28T11:08:42.653Z,47.90
2019-04-28T11:11:22.021Z,47.80
2019-04-28T11:13:50.759Z,50.00
2019-04-28T11:16:21.176Z,49.80
2019-04-28T11:18:49.920Z,50.10
2019-04-28T11:21:18.791Z,49.80
2019-04-28T11:23:47.631Z,49.80
2019-04-28T11:26:16.501Z,50.20
2019-04-28T11:28:45.321Z,47.10
2019-04-28T11:31:14.179Z,47.90
2019-04-28T11:33:50.477Z,49.10
2019-04-28T11:36:20.899Z,51.00
2019-04-28T11:38:49.706Z,48.70
2019-04-28T11:41:18.584Z,47.50
2019-04-28T11:43:47.383Z,46.80
2019-04-28T11:46:17.863Z,47.20
2019-04-28T11:48:46.683Z,48.10
2019-04-28T11:51:15.537Z,47.90
2019-04-28T11:53:44.380Z,47.20
2019-04-28T11:56:13.211Z,48.70
2019-04-28T11:58:42.027Z,48.50
2019-04-28T12:01:12.469Z,50.10
2019-04-28T12:03:41.301Z,48.40
2019-04-28T12:06:10.141Z,48.90
2019-04-28T12:08:38.982Z,49.00
2019-04-28T12:11:25.941Z,49.40
2019-04-28T12:14:11.559Z,51.80
2019-04-28T12:16:44.704Z,52.10
2019-04-28T12:19:15.098Z,50.40
2019-04-28T12:21:43.940Z,51.30
2019-04-28T12:24:12.776Z,48.90
2019-04-28T12:26:41.611Z,48.90
2019-04-28T12:29:10.458Z,48.90
2019-04-28T12:31:39.300Z,50.40
2019-04-28T12:34:08.108Z,49.30
2019-04-28T12:36:36.931Z,49.70
2019-04-28T12:39:08.160Z,51.80
2019-04-28T12:41:36.986Z,54.50
2019-04-28T12:44:06.160Z,55.20
2019-04-28T12:46:34.996Z,55.40
2019-04-28T12:49:08.030Z,56.20
2019-04-28T12:51:36.878Z,54.50
2019-04-28T12:54:07.255Z,54.80
2019-04-28T12:56:36.132Z,52.20
2019-04-28T12:59:06.503Z,52.90
2019-04-28T13:01:36.931Z,51.70
2019-04-28T13:04:10.054Z,51.30
2019-04-28T13:06:38.906Z,50.70
2019-04-28T13:09:08.925Z,50.30
2019-04-28T13:11:37.846Z,53.40
2019-04-28T13:14:06.701Z,53.60
2019-04-28T13:16:35.577Z,53.50
2019-04-28T13:19:04.364Z,55.00
2019-04-28T13:21:33.222Z,56.00
2019-04-28T13:24:02.067Z,58.30
2019-04-28T13:26:30.933Z,56.50
2019-04-28T13:28:59.791Z,56.60
2019-04-28T13:31:28.598Z,54.20
2019-04-28T13:33:59.020Z,55.40
2019-04-28T13:36:27.854Z,56.20
2019-04-28T13:38:58.283Z,55.40
2019-04-28T13:41:27.124Z,54.40
2019-04-28T13:43:56.021Z,53.80
2019-04-28T13:46:24.814Z,55.00
2019-04-28T13:48:53.680Z,57.50
2019-04-28T13:51:22.535Z,58.70
2019-04-28T13:53:51.340Z,62.00
2019-04-28T13:56:20.167Z,64.80
2019-04-28T13:58:50.596Z,69.00
2019-04-28T14:01:26.988Z,68.80
2019-04-28T14:04:06.205Z,74.70
2019-04-28T14:06:39.347Z,72.60
2019-04-28T14:09:10.636Z,70.20
2019-04-28T14:11:39.451Z,70.40
2019-04-28T14:14:08.337Z,71.60
2019-04-28T14:16:37.117Z,70.50
2019-04-28T14:19:05.974Z,71.00
2019-04-28T14:21:34.771Z,67.60
2019-04-28T14:24:03.705Z,71.50
2019-04-28T14:26:32.534Z,72.70
2019-04-28T14:29:01.433Z,69.20
2019-04-28T14:31:30.237Z,67.60
2019-04-28T14:33:59.089Z,68.40
2019-04-28T14:36:41.106Z,69.50
2019-04-28T14:38:58.469Z,66.20
2019-04-28T14:41:27.278Z,63.60
2019-04-28T14:43:56.025Z,64.50
2019-04-28T14:46:24.947Z,63.70
2019-04-28T14:48:53.837Z,64.60
2019-04-28T14:51:22.701Z,67.20
2019-04-28T14:53:51.486Z,67.50
2019-04-28T14:56:20.403Z,64.40
2019-04-28T14:58:49.197Z,68.80
2019-04-28T15:01:19.585Z,65.90
2019-04-28T15:03:49.997Z,66.30
2019-04-28T15:06:23.222Z,64.90
2019-04-28T15:08:56.479Z,66.10
2019-04-28T15:11:33.024Z,65.50
2019-04-28T15:14:01.943Z,66.40
2019-04-28T15:16:31.014Z,65.90
2019-04-28T15:18:59.865Z,64.60
2019-04-28T15:21:28.758Z,65.10
2019-04-28T15:23:57.575Z,64.90
2019-04-28T15:26:26.911Z,66.40
2019-04-28T15:28:55.755Z,67.20
2019-04-28T15:31:24.579Z,65.60
2019-04-28T15:33:53.451Z,67.70
2019-04-28T15:36:22.269Z,64.90
2019-04-28T15:38:51.119Z,65.70
2019-04-28T15:41:21.990Z,65.40
2019-04-28T15:43:50.432Z,65.10
2019-04-28T15:46:19.285Z,65.10
2019-04-28T15:48:48.105Z,65.80
2019-04-28T15:51:16.967Z,67.40
2019-04-28T15:53:47.348Z,66.10
2019-04-28T15:56:33.490Z,65.40
2019-04-28T15:59:02.318Z,62.50
2019-04-28T16:01:31.184Z,63.70
2019-04-28T16:04:00.009Z,64.10
2019-04-28T16:06:28.848Z,65.60
2019-04-28T16:08:57.666Z,63.50
2019-04-28T16:11:29.017Z,62.10
2019-04-28T16:13:57.021Z,63.80
2019-04-28T16:16:25.860Z,64.40
2019-04-28T16:18:54.685Z,65.40
2019-04-28T16:21:23.557Z,65.00
2019-04-28T16:23:52.422Z,65.30
2019-04-28T16:26:22.904Z,64.80
2019-04-28T16:28:51.756Z,64.50
2019-04-28T16:31:20.617Z,65.70
2019-04-28T16:33:49.736Z,66.50
2019-04-28T16:36:18.731Z,64.10
2019-04-28T16:38:47.607Z,64.70
2019-04-28T16:41:16.431Z,66.30
2019-04-28T16:43:45.301Z,67.30
2019-04-28T16:46:14.119Z,64.70
2019-04-28T16:48:42.966Z,65.10
2019-04-28T16:51:14.496Z,65.00
2019-04-28T16:53:42.305Z,61.60
2019-04-28T16:56:21.639Z,62.60
2019-04-28T16:59:01.085Z,62.90
2019-04-28T17:01:37.480Z,63.40
2019-04-28T17:04:06.464Z,63.10
2019-04-28T17:06:35.321Z,62.90
2019-04-28T17:09:05.830Z,63.80
2019-04-28T17:11:34.704Z,63.50
2019-04-28T17:14:03.549Z,64.00
2019-04-28T17:16:32.422Z,63.80
2019-04-28T17:19:01.257Z,63.80
2019-04-28T17:21:30.209Z,64.60
2019-04-28T17:23:59.007Z,64.50
2019-04-28T17:26:27.873Z,65.80
2019-04-28T17:28:56.745Z,66.20
2019-04-28T17:31:25.609Z,65.70
2019-04-28T17:33:54.421Z,67.00
2019-04-28T17:36:23.293Z,66.40
2019-04-28T17:38:53.113Z,66.30
2019-04-28T17:41:22.033Z,66.80
2019-04-28T17:43:50.980Z,67.00
2019-04-28T17:46:20.499Z,67.80
2019-04-28T17:48:53.645Z,67.70
2019-04-28T17:51:22.468Z,68.60
2019-04-28T17:53:51.327Z,69.60
2019-04-28T17:56:20.165Z,69.30
2019-04-28T17:58:48.996Z,68.50
2019-04-28T18:01:22.674Z,68.50
2019-04-28T18:03:55.958Z,69.00
2019-04-28T18:06:26.350Z,70.20
2019-04-28T18:08:55.205Z,71.00
2019-04-28T18:11:24.034Z,70.40
2019-04-28T18:13:52.896Z,70.20
2019-04-28T18:16:29.411Z,70.00
2019-04-28T18:19:03.048Z,70.80
2019-04-28T18:21:32.080Z,71.20
2019-04-28T18:24:00.951Z,70.80
2019-04-28T18:26:29.769Z,71.20
2019-04-28T18:28:58.567Z,71.10
2019-04-28T18:31:45.473Z,71.10
2019-04-28T18:34:15.912Z,72.00
2019-04-28T18:36:46.307Z,72.30
2019-04-28T18:39:29.051Z,72.30
2019-04-28T18:42:14.554Z,71.00
2019-04-28T18:44:42.008Z,72.30
2019-04-28T18:47:10.855Z,71.40
2019-04-28T18:49:40.087Z,70.20
2019-04-28T18:52:08.910Z,70.20
2019-04-28T18:54:37.751Z,71.20
2019-04-28T18:57:06.574Z,71.40
2019-04-28T18:59:35.457Z,70.70
2019-04-28T19:02:05.964Z,70.60
2019-04-28T19:04:34.774Z,69.00
2019-04-28T19:07:05.674Z,70.40
2019-04-28T19:09:39.293Z,69.10
2019-04-28T19:12:12.220Z,68.10
2019-04-28T19:14:48.798Z,68.90
2019-04-28T19:17:19.207Z,69.30
2019-04-28T19:19:48.058Z,69.70
2019-04-28T19:22:16.978Z,70.20
2019-04-28T19:24:45.767Z,70.40
2019-04-28T19:27:14.640Z,69.10
2019-04-28T19:29:43.455Z,70.00
2019-04-28T19:32:12.325Z,69.90
2019-04-28T19:34:41.161Z,69.80
2019-04-28T19:37:10.007Z,69.80
2019-04-28T19:39:40.841Z,71.00
2019-04-28T19:42:09.370Z,71.10
2019-04-28T19:44:38.209Z,71.60
2019-04-28T19:47:07.042Z,72.20
2019-04-28T19:49:35.891Z,72.70
2019-04-28T19:52:04.767Z,72.80
2019-04-28T19:54:35.191Z,72.20
2019-04-28T19:57:05.588Z,71.90
2019-04-28T19:59:36.031Z,71.40
2019-04-28T20:02:04.857Z,64.70
2019-04-28T20:04:33.726Z,69.90
2019-04-28T20:07:02.659Z,70.60
2019-04-28T20:09:31.517Z,70.90
2019-04-28T20:12:00.337Z,70.90
2019-04-28T20:14:29.194Z,69.20
2019-04-28T20:16:58.002Z,69.40
2019-04-28T20:19:26.839Z,70.20
2019-04-28T20:21:55.663Z,70.40
2019-04-28T20:24:24.494Z,63.30
2019-04-28T20:26:53.359Z,62.10
2019-04-28T20:29:23.278Z,62.30
2019-04-28T20:31:52.469Z,62.10
2019-04-28T20:34:21.303Z,63.70
2019-04-28T20:36:57.483Z,65.10
2019-04-28T20:39:33.587Z,62.70
2019-04-28T20:42:20.483Z,57.60
2019-04-28T20:44:49.705Z,56.60
2019-04-28T20:47:18.574Z,56.60
2019-04-28T20:49:47.396Z,56.10
2019-04-28T20:52:16.246Z,55.30
2019-04-28T20:54:45.066Z,55.10
2019-04-28T20:57:13.924Z,54.80
2019-04-28T20:59:42.799Z,55.30
2019-04-28T21:02:11.623Z,54.70
2019-04-28T21:04:40.494Z,54.90
2019-04-28T21:07:09.243Z,54.90
2019-04-28T21:09:38.094Z,55.20
2019-04-28T21:12:06.945Z,55.00
2019-04-28T21:14:35.779Z,55.40
2019-04-28T21:17:04.619Z,56.10
2019-04-28T21:19:33.474Z,55.70
2019-04-28T21:22:02.333Z,55.50
2019-04-28T21:24:31.086Z,56.00
2019-04-28T21:26:59.936Z,56.30
2019-04-28T21:29:28.767Z,56.40
2019-04-28T21:31:57.690Z,56.90
2019-04-28T21:34:26.540Z,57.60
2019-04-28T21:36:55.423Z,58.10
2019-04-28T21:39:24.242Z,59.00
2019-04-28T21:41:53.475Z,60.70
2019-04-28T21:44:23.907Z,61.20
2019-04-28T21:46:54.330Z,61.30
2019-04-28T21:49:24.720Z,62.40
2019-04-28T21:51:53.555Z,63.40
2019-04-28T21:54:22.367Z,64.80
2019-04-28T21:56:51.170Z,68.40
2019-04-28T21:59:20.015Z,71.00
2019-04-28T22:01:48.851Z,71.90
2019-04-28T22:04:17.988Z,77.00
2019-04-28T22:06:46.808Z,72.80
2019-04-28T22:09:16.175Z,73.10
2019-04-28T22:11:44.983Z,76.90
2019-04-28T22:14:13.879Z,76.40
2019-04-28T22:16:42.716Z,76.90
2019-04-28T22:19:11.558Z,78.60
2019-04-28T22:21:40.314Z,80.50
2019-04-28T22:24:10.700Z,82.50
2019-04-28T22:26:44.166Z,84.00
2019-04-28T22:29:14.446Z,82.00
2019-04-28T22:31:43.510Z,82.00
2019-04-28T22:34:14.444Z,80.70
2019-04-28T22:36:45.509Z,82.90
2019-04-28T22:39:14.630Z,85.30
2019-04-28T22:41:43.537Z,86.50
2019-04-28T22:44:12.347Z,86.30
2019-04-28T22:46:41.187Z,85.80
2019-04-28T22:49:10.019Z,87.10
2019-04-28T22:51:38.838Z,86.50
2019-04-28T22:54:09.254Z,85.60
2019-04-28T22:56:39.715Z,87.30
2019-04-28T22:59:19.078Z,87.30
2019-04-28T23:01:58.690Z,86.20
2019-04-28T23:04:45.577Z,84.20
2019-04-28T23:07:14.465Z,86.90
2019-04-28T23:09:43.267Z,86.30
2019-04-28T23:12:12.119Z,87.50
2019-04-28T23:14:40.942Z,87.10
2019-04-28T23:17:11.385Z,87.90
2019-04-28T23:19:41.825Z,85.80
2019-04-28T23:22:21.306Z,85.90
2019-04-28T23:24:50.162Z,85.30
2019-04-28T23:27:18.981Z,83.40
2019-04-28T23:29:47.837Z,84.00
2019-04-28T23:32:16.663Z,85.30
2019-04-28T23:34:45.491Z,85.40
2019-04-28T23:37:14.318Z,84.20
2019-04-28T23:39:43.155Z,84.20
2019-04-28T23:42:19.614Z,85.10
2019-04-28T23:44:48.443Z,84.70
2019-04-28T23:47:17.271Z,84.20
2019-04-28T23:49:46.135Z,83.80
2019-04-28T23:52:28.803Z,84.80
2019-04-28T23:55:05.219Z,84.40
2019-04-28T23:57:34.037Z,85.50
